Alice, Texas
Current Conditions -  °F | °C
As of 5:53 PM on Wednesday 28 Jan 2015 (Local Time) from KALI Reporting Station
Clear Clear  
Wind Chill: 72°   Ceiling: Unl
Heat Index: 72°   Visibility: 10mi
Dew Point: 60°   Wind: 12mph
Humidity: 66%   Direction: 140°SE
Pressure: 30.08"   Gusts: 29mph
Location:  27.75°N, 98.06°W
Report Text: KALI 282353Z AUTO 14010G25KT 120V180 10SM CLR 22/16 A3008 RMK AO2 PK WND 11032/2255 SLP185 T02220156 55005
Loading
Personal Weather Stations






























Interactive Weather Map New forecast layout! Learn more

10-Day Weather Forecast

Advertisements
Track Severe Weather on mobile